Time;durP1;ratioP1;P1;durP2;ratioP2;P2;SDS_P1;SDS_P2;PMS_P1;PMS_P2;Temp;Humidity;BMP_temperature;BMP_pressure;BME280_temperature;BME280_humidity;BME280_pressure;Samples;Min_cycle;Max_cycle;Signal;HPM_P1;HPM_P2
2022/07/19 00:02:03;;;;;;;0.22;0.00;;;19.10;99.90;;;;;;5051761;28;20038;-81
2022/07/19 00:04:29;;;;;;;0.00;0.00;;;19.10;99.90;;;;;;5069720;28;20049;-81
2022/07/19 00:06:55;;;;;;;0.03;0.03;;;19.10;99.90;;;;;;5035410;28;20482;-80
2022/07/19 00:09:22;;;;;;;0.63;0.30;;;19.00;99.90;;;;;;5036035;28;20038;-81
2022/07/19 00:11:48;;;;;;;0.00;0.00;;;18.90;99.90;;;;;;5035160;28;20393;-81
2022/07/19 00:14:14;;;;;;;0.30;0.10;;;18.90;99.90;;;;;;5051705;28;20045;-80
2022/07/19 00:16:40;;;;;;;0.00;0.00;;;18.90;99.90;;;;;;5068113;28;20045;-80
2022/07/19 00:19:05;;;;;;;0.98;0.65;;;18.90;99.90;;;;;;5050755;28;20045;-81
2022/07/19 00:21:31;;;;;;;0.00;0.00;;;18.90;99.90;;;;;;5035069;28;20046;-80
2022/07/19 00:23:57;;;;;;;0.00;0.00;;;18.90;99.90;;;;;;5068475;28;20045;-81
2022/07/19 00:26:23;;;;;;;0.00;0.00;;;18.80;99.90;;;;;;5051362;28;20056;-81
2022/07/19 00:28:48;;;;;;;0.55;0.20;;;18.80;99.90;;;;;;5068208;28;20051;-80
2022/07/19 00:31:14;;;;;;;0.00;0.00;;;18.70;99.90;;;;;;5068615;28;20045;-80
2022/07/19 00:33:40;;;;;;;0.00;0.00;;;18.70;99.90;;;;;;5051278;28;20509;-81
2022/07/19 00:36:06;;;;;;;0.00;0.00;;;18.70;99.90;;;;;;5034826;28;20102;-80
2022/07/19 00:38:31;;;;;;;0.03;0.03;;;18.60;99.90;;;;;;5068450;28;20045;-80
2022/07/19 00:41:00;;;;;;;2.50;0.13;;;18.60;99.90;;;;;;5050914;28;20041;-80
2022/07/19 00:43:25;;;;;;;0.00;0.00;;;18.60;99.90;;;;;;5068157;28;20045;-81
2022/07/19 00:45:51;;;;;;;0.10;0.00;;;18.60;99.90;;;;;;5051353;28;20052;-80
2022/07/19 00:48:16;;;;;;;0.00;0.00;;;18.60;99.90;;;;;;5067959;28;20178;-80
2022/07/19 00:50:42;;;;;;;0.00;0.00;;;18.50;99.90;;;;;;5034513;28;20084;-80
2022/07/19 00:53:09;;;;;;;0.10;0.10;;;18.60;99.90;;;;;;5034676;28;20038;-80
2022/07/19 00:55:35;;;;;;;0.00;0.00;;;18.50;99.90;;;;;;5051329;28;20051;-80
2022/07/19 00:58:02;;;;;;;0.00;0.00;;;18.50;99.90;;;;;;5034231;28;20131;-80
2022/07/19 01:00:30;;;;;;;0.00;0.00;;;18.40;99.90;;;;;;5050834;28;20054;-80
2022/07/19 01:02:56;;;;;;;0.00;0.00;;;18.40;99.90;;;;;;5034425;28;20068;-80
2022/07/19 01:05:22;;;;;;;0.00;0.00;;;18.30;99.90;;;;;;5050871;28;20054;-80
2022/07/19 01:07:48;;;;;;;0.00;0.00;;;18.30;99.90;;;;;;5068326;28;20104;-80
2022/07/19 01:10:15;;;;;;;1.55;0.25;;;18.30;99.90;;;;;;5051290;28;20393;-80
2022/07/19 01:12:42;;;;;;;0.08;0.08;;;18.30;99.90;;;;;;5034203;28;20108;-80
2022/07/19 01:15:17;;;;;;;0.00;0.00;;;18.20;99.90;;;;;;5050500;28;20485;-80
2022/07/19 01:17:43;;;;;;;0.00;0.00;;;18.20;99.90;;;;;;5067132;28;20047;-80
2022/07/19 01:20:09;;;;;;;0.00;0.00;;;18.10;99.90;;;;;;5050653;28;20045;-80
2022/07/19 01:22:34;;;;;;;2.95;0.45;;;18.10;99.90;;;;;;5051227;28;20432;-80
2022/07/19 01:25:00;;;;;;;0.00;0.00;;;18.10;99.90;;;;;;5049842;28;20061;-80
2022/07/19 01:27:26;;;;;;;0.00;0.00;;;18.10;99.90;;;;;;5067190;28;20144;-80
2022/07/19 01:29:51;;;;;;;0.15;0.08;;;18.10;99.90;;;;;;5034065;28;20390;-80
2022/07/19 01:32:17;;;;;;;0.00;0.00;;;18.10;99.90;;;;;;5066829;28;20393;-80
2022/07/19 01:34:43;;;;;;;0.00;0.00;;;18.00;99.90;;;;;;5066773;28;20087;-80
2022/07/19 01:37:08;;;;;;;0.00;0.00;;;18.00;99.90;;;;;;5033991;28;20520;-80
2022/07/19 01:39:34;;;;;;;0.00;0.00;;;18.00;99.90;;;;;;5050126;28;20049;-80
2022/07/19 01:41:59;;;;;;;0.00;0.00;;;18.00;99.90;;;;;;5050337;28;20110;-80
2022/07/19 01:44:25;;;;;;;0.00;0.00;;;18.00;99.90;;;;;;5050177;28;20060;-80
2022/07/19 01:46:51;;;;;;;0.00;0.00;;;18.00;99.90;;;;;;5066952;28;20088;-80
2022/07/19 01:49:16;;;;;;;0.00;0.00;;;18.00;99.90;;;;;;5066962;28;20038;-80
2022/07/19 01:51:42;;;;;;;1.55;0.08;;;18.00;99.90;;;;;;5050553;28;20061;-80
2022/07/19 01:54:07;;;;;;;0.00;0.00;;;17.90;99.90;;;;;;5066581;28;20046;-80
2022/07/19 01:56:33;;;;;;;0.03;0.03;;;17.90;99.90;;;;;;5033143;28;20041;-81
2022/07/19 01:58:59;;;;;;;0.13;0.05;;;17.90;99.90;;;;;;5049512;28;20060;-80
2022/07/19 02:01:24;;;;;;;0.00;0.00;;;17.90;99.90;;;;;;5050111;28;20386;-80
2022/07/19 02:03:50;;;;;;;0.00;0.00;;;17.90;99.90;;;;;;5033391;28;20056;-80
2022/07/19 02:06:16;;;;;;;0.00;0.00;;;17.90;99.90;;;;;;5050255;28;20496;-80
2022/07/19 02:08:42;;;;;;;0.00;0.00;;;17.80;99.90;;;;;;5033461;28;20049;-80
2022/07/19 02:13:52;;;;;;;0.00;0.00;;;17.70;99.90;;;;;;5067364;28;20136;-80
2022/07/19 02:16:18;;;;;;;0.10;0.10;;;17.60;99.90;;;;;;5033071;28;20132;-80
2022/07/19 02:18:44;;;;;;;0.20;0.03;;;17.60;99.90;;;;;;5033577;28;20042;-80
2022/07/19 02:21:09;;;;;;;0.10;0.10;;;17.60;99.90;;;;;;5049393;28;20107;-80
2022/07/19 02:23:35;;;;;;;0.00;0.00;;;17.50;99.90;;;;;;5066233;28;20037;-80
2022/07/19 02:26:01;;;;;;;0.00;0.00;;;17.50;99.90;;;;;;5066249;28;20500;-80
2022/07/19 02:28:26;;;;;;;0.00;0.00;;;17.50;99.90;;;;;;5032901;28;20535;-81
2022/07/19 02:30:52;;;;;;;0.00;0.00;;;17.50;99.90;;;;;;5049418;28;20449;-80
2022/07/19 02:33:18;;;;;;;0.00;0.00;;;17.40;99.90;;;;;;5066607;28;20136;-81
2022/07/19 02:35:43;;;;;;;1.08;0.20;;;17.40;99.90;;;;;;5066561;28;20493;-80
2022/07/19 02:38:09;;;;;;;0.00;0.00;;;17.40;99.90;;;;;;5065544;28;20042;-81
2022/07/19 02:40:35;;;;;;;0.13;0.13;;;17.40;99.90;;;;;;5049663;28;20136;-80
2022/07/19 02:43:00;;;;;;;0.08;0.08;;;17.30;99.90;;;;;;5034632;28;20486;-80
2022/07/19 02:45:26;;;;;;;0.10;0.10;;;17.30;99.90;;;;;;5037232;28;20037;-80
2022/07/19 02:47:51;;;;;;;2.38;0.45;;;17.30;99.90;;;;;;5053806;28;20140;-80
2022/07/19 02:50:17;;;;;;;1.35;0.38;;;17.30;99.90;;;;;;5036876;28;20084;-81
2022/07/19 02:52:43;;;;;;;0.00;0.00;;;17.20;99.90;;;;;;5070135;28;20050;-80
2022/07/19 02:55:09;;;;;;;0.00;0.00;;;17.30;99.90;;;;;;5069338;28;20057;-80
2022/07/19 02:57:35;;;;;;;0.00;0.00;;;17.20;99.90;;;;;;5053227;28;20051;-80
2022/07/19 03:00:01;;;;;;;0.28;0.28;;;17.10;99.90;;;;;;5053072;28;20147;-80
2022/07/19 03:02:26;;;;;;;0.00;0.00;;;17.20;99.90;;;;;;5052754;28;20053;-80
2022/07/19 03:04:52;;;;;;;0.00;0.00;;;17.10;99.90;;;;;;5053581;28;20068;-80
2022/07/19 03:07:17;;;;;;;0.00;0.00;;;17.00;99.90;;;;;;5053005;28;20049;-80
2022/07/19 03:09:43;;;;;;;0.00;0.00;;;17.00;99.90;;;;;;5052313;28;20398;-81
2022/07/19 03:12:09;;;;;;;0.20;0.17;;;16.90;99.90;;;;;;5035038;28;20394;-81
2022/07/19 03:14:34;;;;;;;0.00;0.00;;;17.00;99.90;;;;;;5067709;28;20049;-80
2022/07/19 03:17:00;;;;;;;0.10;0.00;;;17.00;99.90;;;;;;5052521;28;20064;-79
2022/07/19 03:19:26;;;;;;;0.08;0.08;;;16.90;99.90;;;;;;5052867;28;20049;-80
2022/07/19 03:21:53;;;;;;;0.10;0.10;;;16.90;99.90;;;;;;5036530;28;20137;-80
2022/07/19 03:24:18;;;;;;;0.35;0.35;;;16.80;99.90;;;;;;5035918;28;20045;-80
2022/07/19 03:26:44;;;;;;;0.05;0.05;;;16.90;99.90;;;;;;5052683;28;20047;-80
2022/07/19 03:29:10;;;;;;;0.00;0.00;;;16.80;99.90;;;;;;5035874;28;20072;-80
2022/07/19 03:31:36;;;;;;;0.73;0.10;;;16.70;99.90;;;;;;5036249;28;20050;-79
2022/07/19 03:34:03;;;;;;;0.65;0.05;;;16.80;99.90;;;;;;5052837;28;20050;-79
2022/07/19 03:36:28;;;;;;;0.00;0.00;;;16.80;99.90;;;;;;5052329;28;20490;-80
2022/07/19 03:38:54;;;;;;;0.20;0.10;;;16.70;99.90;;;;;;5035732;28;20076;-80
2022/07/19 03:41:23;;;;;;;0.00;0.00;;;16.80;99.90;;;;;;5069105;28;20046;-80
2022/07/19 03:43:49;;;;;;;0.00;0.00;;;16.70;99.90;;;;;;5068999;28;20053;-80
2022/07/19 03:46:15;;;;;;;0.47;0.05;;;16.70;99.90;;;;;;5068975;28;20087;-80
2022/07/19 03:48:40;;;;;;;0.13;0.13;;;16.70;99.90;;;;;;5069197;28;20140;-80
2022/07/19 03:51:09;;;;;;;0.08;0.08;;;16.70;99.90;;;;;;5052322;28;20050;-80
2022/07/19 03:53:34;;;;;;;0.00;0.00;;;16.70;99.90;;;;;;5068503;28;20072;-80
2022/07/19 03:56:01;;;;;;;0.10;0.00;;;16.70;99.90;;;;;;5035375;28;20481;-80
2022/07/19 03:58:26;;;;;;;0.00;0.00;;;16.70;99.90;;;;;;5052966;28;20053;-80
2022/07/19 04:00:53;;;;;;;0.00;0.00;;;16.70;99.90;;;;;;5051816;28;20057;-80
2022/07/19 04:03:18;;;;;;;0.00;0.00;;;16.70;99.90;;;;;;5035374;28;20134;-80
2022/07/19 04:05:44;;;;;;;0.08;0.03;;;16.70;99.90;;;;;;5051840;28;20084;-80
2022/07/19 04:08:10;;;;;;;1.08;0.15;;;16.70;99.90;;;;;;5035554;28;20469;-80
2022/07/19 04:10:35;;;;;;;0.00;0.00;;;16.70;99.90;;;;;;5051587;28;20572;-80
2022/07/19 04:13:01;;;;;;;0.00;0.00;;;16.70;99.90;;;;;;5019082;28;20053;-80
2022/07/19 04:15:27;;;;;;;0.00;0.00;;;16.70;99.90;;;;;;5069165;28;20041;-80
2022/07/19 04:17:52;;;;;;;0.00;0.00;;;16.80;99.90;;;;;;5067462;28;20050;-80
2022/07/19 04:20:18;;;;;;;0.10;0.10;;;16.70;99.90;;;;;;5042338;28;20400;-80
2022/07/19 04:22:43;;;;;;;0.10;0.10;;;16.70;99.90;;;;;;5054768;28;20450;-80
2022/07/19 04:25:09;;;;;;;0.10;0.10;;;16.70;99.90;;;;;;5088277;28;20484;-80
2022/07/19 04:27:35;;;;;;;0.00;0.00;;;16.80;99.90;;;;;;5071800;28;20045;-80
2022/07/19 04:30:01;;;;;;;0.10;0.10;;;16.80;99.90;;;;;;5071537;28;20091;-80
2022/07/19 04:32:28;;;;;;;0.00;0.00;;;16.90;99.90;;;;;;5088038;28;20040;-80
2022/07/19 04:34:54;;;;;;;0.10;0.10;;;16.90;99.90;;;;;;5087921;28;20489;-80
2022/07/19 04:37:20;;;;;;;0.00;0.00;;;16.90;99.90;;;;;;5071478;28;20075;-80
2022/07/19 04:39:45;;;;;;;0.00;0.00;;;17.00;99.90;;;;;;5071308;28;20056;-80
2022/07/19 04:42:11;;;;;;;0.00;0.00;;;17.00;99.90;;;;;;5087939;28;20060;-80
2022/07/19 04:44:37;;;;;;;0.03;0.03;;;17.00;99.90;;;;;;5071941;28;20045;-80
2022/07/19 04:47:03;;;;;;;0.00;0.00;;;17.10;99.90;;;;;;5088206;28;20385;-80
2022/07/19 04:49:28;;;;;;;0.00;0.00;;;17.10;99.90;;;;;;5071164;28;20049;-80
2022/07/19 04:51:54;;;;;;;0.00;0.00;;;17.10;99.90;;;;;;5088145;28;20067;-80
2022/07/19 04:54:20;;;;;;;0.57;0.30;;;17.20;99.90;;;;;;5088205;28;20063;-81
2022/07/19 04:56:46;;;;;;;0.00;0.00;;;17.20;99.90;;;;;;5071112;28;20041;-80
2022/07/19 04:59:11;;;;;;;0.00;0.00;;;17.30;99.90;;;;;;5087917;28;20445;-80
2022/07/19 05:01:37;;;;;;;1.17;0.40;;;17.30;99.90;;;;;;5071158;28;20068;-80
2022/07/19 05:04:03;;;;;;;0.00;0.00;;;17.30;99.90;;;;;;5070958;28;20051;-80
2022/07/19 05:06:29;;;;;;;0.00;0.00;;;17.40;99.90;;;;;;5070277;28;20178;-81
2022/07/19 05:08:56;;;;;;;1.15;0.28;;;17.50;99.90;;;;;;5070458;28;20063;-81
2022/07/19 05:11:22;;;;;;;1.08;0.43;;;17.50;99.90;;;;;;5071198;28;20128;-81
2022/07/19 05:13:48;;;;;;;0.00;0.00;;;17.60;99.90;;;;;;5088083;28;20052;-81
2022/07/19 05:16:14;;;;;;;0.00;0.00;;;17.70;99.90;;;;;;5070915;28;20045;-81
2022/07/19 05:18:39;;;;;;;0.03;0.03;;;17.80;99.90;;;;;;5070890;28;20404;-81
2022/07/19 05:21:05;;;;;;;0.13;0.13;;;17.80;99.90;;;;;;5070486;28;20066;-81
2022/07/19 05:23:31;;;;;;;0.00;0.00;;;17.90;99.90;;;;;;5070517;28;20088;-81
2022/07/19 05:25:57;;;;;;;0.00;0.00;;;18.00;99.90;;;;;;5070404;28;20506;-81
2022/07/19 05:28:23;;;;;;;0.00;0.00;;;18.10;99.90;;;;;;5071451;28;20049;-81
2022/07/19 05:30:49;;;;;;;0.20;0.20;;;18.20;99.90;;;;;;5037510;28;20143;-81
2022/07/19 05:33:16;;;;;;;0.00;0.00;;;18.30;99.90;;;;;;5070428;28;20056;-81
2022/07/19 05:35:42;;;;;;;0.10;0.10;;;18.40;99.90;;;;;;5070478;28;20388;-81
2022/07/19 05:38:08;;;;;;;0.10;0.10;;;18.50;99.90;;;;;;5086634;28;20087;-81
2022/07/19 05:40:34;;;;;;;1.17;0.20;;;18.50;99.90;;;;;;5069927;28;20518;-80
2022/07/19 05:43:00;;;;;;;0.00;0.00;;;18.80;99.90;;;;;;5087073;28;20123;-80
2022/07/19 05:45:26;;;;;;;0.00;0.00;;;19.00;99.90;;;;;;5087096;28;20044;-81
2022/07/19 05:47:52;;;;;;;0.00;0.00;;;19.30;99.90;;;;;;5070315;28;20048;-81
2022/07/19 05:50:18;;;;;;;0.65;0.25;;;19.40;99.90;;;;;;5086460;28;20086;-81
2022/07/19 05:52:44;;;;;;;0.00;0.00;;;19.50;99.90;;;;;;5086704;28;20378;-81
2022/07/19 05:55:10;;;;;;;0.00;0.00;;;19.50;99.90;;;;;;5052788;28;20087;-81
2022/07/19 05:57:38;;;;;;;0.10;0.00;;;19.50;99.90;;;;;;5070287;28;20061;-81
2022/07/19 06:00:05;;;;;;;0.00;0.00;;;19.40;99.90;;;;;;5087004;28;20045;-81
2022/07/19 06:02:31;;;;;;;0.05;0.05;;;19.40;99.90;;;;;;5086703;28;20388;-81
2022/07/19 06:04:56;;;;;;;0.00;0.00;;;19.40;99.90;;;;;;5070089;28;20040;-81
2022/07/19 06:07:22;;;;;;;0.00;0.00;;;19.50;99.90;;;;;;5086539;28;20136;-81
2022/07/19 06:09:48;;;;;;;0.00;0.00;;;19.50;99.90;;;;;;5069943;28;20045;-81
2022/07/19 06:12:13;;;;;;;0.00;0.00;;;19.60;99.90;;;;;;5069834;28;20049;-81
2022/07/19 06:14:42;;;;;;;0.00;0.00;;;19.60;99.90;;;;;;5086341;28;20080;-81
2022/07/19 06:17:07;;;;;;;0.00;0.00;;;19.70;99.90;;;;;;5085646;28;20041;-81
2022/07/19 06:19:33;;;;;;;0.00;0.00;;;19.70;99.90;;;;;;5086255;28;20183;-81
2022/07/19 06:21:59;;;;;;;0.38;0.10;;;19.80;99.90;;;;;;5086474;28;20064;-81
2022/07/19 06:24:24;;;;;;;0.00;0.00;;;19.80;99.90;;;;;;5085968;28;20374;-81
2022/07/19 06:26:50;;;;;;;0.00;0.00;;;19.90;99.90;;;;;;5086374;28;20126;-81
2022/07/19 06:29:15;;;;;;;0.00;0.00;;;19.90;99.90;;;;;;5069488;28;20507;-81
2022/07/19 06:31:41;;;;;;;0.00;0.00;;;20.00;99.90;;;;;;5069540;28;20059;-81
2022/07/19 06:34:07;;;;;;;0.22;0.05;;;20.10;99.90;;;;;;5052750;28;20045;-81
2022/07/19 06:36:32;;;;;;;0.00;0.00;;;20.20;99.90;;;;;;5086210;28;20041;-81
2022/07/19 06:38:58;;;;;;;0.00;0.00;;;20.20;99.90;;;;;;5069445;28;20053;-81
2022/07/19 06:41:24;;;;;;;0.00;0.00;;;20.30;99.90;;;;;;5069333;28;20389;-81
2022/07/19 06:43:49;;;;;;;0.10;0.10;;;20.40;99.90;;;;;;5086508;28;20037;-81
2022/07/19 06:46:15;;;;;;;0.00;0.00;;;20.50;99.90;;;;;;5086518;28;20132;-81
2022/07/19 06:48:40;;;;;;;0.65;0.20;;;20.60;99.90;;;;;;5086519;28;20053;-80
2022/07/19 06:51:08;;;;;;;0.00;0.00;;;20.70;99.90;;;;;;5086092;28;20048;-81
2022/07/19 06:53:34;;;;;;;0.00;0.00;;;20.80;99.90;;;;;;5069369;28;20053;-80
2022/07/19 06:56:00;;;;;;;0.00;0.00;;;20.90;99.90;;;;;;5085999;28;20489;-81
2022/07/19 06:58:25;;;;;;;0.43;0.30;;;21.00;99.90;;;;;;5085847;28;20045;-81
2022/07/19 07:00:51;;;;;;;0.00;0.00;;;21.10;99.90;;;;;;5086461;28;20110;-81
2022/07/19 07:03:18;;;;;;;0.00;0.00;;;21.20;99.90;;;;;;5069416;28;20045;-81
2022/07/19 07:05:44;;;;;;;0.10;0.10;;;21.30;99.90;;;;;;5086282;28;20048;-81
2022/07/19 07:08:10;;;;;;;0.00;0.00;;;21.40;99.90;;;;;;5069408;28;20144;-80
2022/07/19 07:10:37;;;;;;;0.00;0.00;;;21.60;99.90;;;;;;5086026;28;20144;-80
2022/07/19 07:13:02;;;;;;;0.10;0.10;;;21.70;99.90;;;;;;5086336;28;20466;-81
2022/07/19 07:15:28;;;;;;;0.38;0.38;;;21.80;99.90;;;;;;5069446;28;20099;-81
2022/07/19 07:17:54;;;;;;;0.00;0.00;;;22.00;99.90;;;;;;5086066;28;20102;-80
2022/07/19 07:20:19;;;;;;;0.10;0.10;;;22.10;99.90;;;;;;5069038;28;20052;-80
2022/07/19 07:22:45;;;;;;;0.00;0.00;;;22.20;99.90;;;;;;5086272;28;20068;-80
2022/07/19 07:25:11;;;;;;;0.43;0.25;;;22.40;99.90;;;;;;5086160;28;20452;-81
2022/07/19 07:27:37;;;;;;;0.00;0.00;;;22.50;99.90;;;;;;5069906;28;20455;-81
2022/07/19 07:30:03;;;;;;;0.10;0.10;;;22.60;99.90;;;;;;5089406;28;20080;-81
2022/07/19 07:32:29;;;;;;;3.83;0.63;;;22.70;99.90;;;;;;5072842;28;20052;-81
2022/07/19 07:34:55;;;;;;;0.10;0.10;;;22.90;99.90;;;;;;5072160;28;20049;-81
2022/07/19 07:37:21;;;;;;;0.10;0.10;;;23.10;99.90;;;;;;5089665;28;20041;-81
2022/07/19 07:39:46;;;;;;;0.15;0.13;;;23.20;99.90;;;;;;5072432;28;20443;-81
2022/07/19 07:42:12;;;;;;;0.00;0.00;;;23.40;99.90;;;;;;5073133;28;20557;-80
2022/07/19 07:44:38;;;;;;;0.03;0.00;;;23.60;99.90;;;;;;5089352;28;20389;-81
2022/07/19 07:47:03;;;;;;;0.63;0.20;;;23.80;99.90;;;;;;5089288;28;20127;-81
2022/07/19 07:49:30;;;;;;;0.00;0.00;;;24.00;99.90;;;;;;5072358;28;20150;-81
2022/07/19 07:51:56;;;;;;;0.00;0.00;;;24.10;99.90;;;;;;5072479;28;20049;-81
2022/07/19 07:54:21;;;;;;;0.00;0.00;;;24.20;99.90;;;;;;5088955;28;20064;-81
2022/07/19 07:56:47;;;;;;;0.00;0.00;;;24.30;99.90;;;;;;5072416;28;20393;-81
2022/07/19 07:59:13;;;;;;;0.00;0.00;;;24.40;99.90;;;;;;5089130;28;20132;-80
2022/07/19 08:01:43;;;;;;;0.00;0.00;;;24.60;99.90;;;;;;5088619;28;20056;-81
2022/07/19 08:04:09;;;;;;;0.00;0.00;;;24.70;99.90;;;;;;5071730;28;20060;-80
2022/07/19 08:06:34;;;;;;;0.00;0.00;;;24.80;99.90;;;;;;5088979;28;20546;-81
2022/07/19 08:09:00;;;;;;;0.25;0.05;;;25.00;99.90;;;;;;5072036;28;20060;-81
2022/07/19 08:11:26;;;;;;;0.43;0.20;;;25.10;99.90;;;;;;5089214;28;20048;-81
2022/07/19 08:13:51;;;;;;;0.00;0.00;;;25.20;99.90;;;;;;5088937;28;20408;-81
2022/07/19 08:16:17;;;;;;;0.08;0.08;;;25.40;99.90;;;;;;5072221;28;20061;-81
2022/07/19 08:18:43;;;;;;;0.00;0.00;;;25.50;99.90;;;;;;5055191;28;20044;-81
2022/07/19 08:21:09;;;;;;;0.05;0.00;;;25.70;99.20;;;;;;5088310;28;20508;-80
2022/07/19 08:23:35;;;;;;;0.00;0.00;;;25.80;98.80;;;;;;5053156;28;20064;-80
2022/07/19 08:26:01;;;;;;;0.10;0.10;;;25.90;99.90;;;;;;5038136;28;20060;-80
2022/07/19 08:28:26;;;;;;;0.00;0.00;;;26.00;98.60;;;;;;5054756;28;20051;-80
2022/07/19 08:30:52;;;;;;;0.00;0.00;;;26.10;99.90;;;;;;5038035;28;20049;-80
2022/07/19 08:33:18;;;;;;;0.43;0.10;;;26.30;99.90;;;;;;5054670;28;20135;-81
2022/07/19 08:35:44;;;;;;;0.00;0.00;;;26.40;98.90;;;;;;5054317;28;20052;-80
2022/07/19 08:38:10;;;;;;;0.00;0.00;;;26.50;97.50;;;;;;5037864;28;20044;-80
2022/07/19 08:40:40;;;;;;;0.10;0.10;;;26.60;98.40;;;;;;5053792;28;20400;-80
2022/07/19 08:43:06;;;;;;;1.98;0.38;;;26.70;96.50;;;;;;5054654;28;20493;-80
2022/07/19 08:45:32;;;;;;;0.00;0.00;;;26.90;96.50;;;;;;5054433;28;20049;-80
2022/07/19 08:47:58;;;;;;;0.10;0.10;;;27.00;95.00;;;;;;5037805;28;20055;-80
2022/07/19 08:50:25;;;;;;;0.00;0.00;;;27.10;94.30;;;;;;5055044;28;20389;-80
2022/07/19 08:52:52;;;;;;;12.40;0.47;;;27.30;95.60;;;;;;5054811;28;20045;-80
2022/07/19 08:55:18;;;;;;;1.20;0.68;;;27.40;94.50;;;;;;5054354;28;20132;-81
2022/07/19 08:58:01;;;;;;;0.00;0.00;;;27.60;95.30;;;;;;5054230;28;20465;-81
2022/07/19 09:00:32;;;;;;;0.00;0.00;;;27.70;94.30;;;;;;5038071;28;20056;-80
2022/07/19 09:03:01;;;;;;;0.00;0.00;;;27.90;93.60;;;;;;5054281;28;20396;-80
2022/07/19 09:05:28;;;;;;;0.10;0.10;;;28.00;93.80;;;;;;5054537;28;20080;-81
2022/07/19 09:08:15;;;;;;;0.10;0.10;;;28.10;93.50;;;;;;5054408;28;20465;-81
2022/07/19 09:13:35;;;;;;;0.00;0.00;;;28.40;90.50;;;;;;5054396;28;20048;-81
2022/07/19 09:16:01;;;;;;;0.00;0.00;;;28.50;86.80;;;;;;5037345;28;20054;-81
2022/07/19 09:18:32;;;;;;;0.00;0.00;;;28.70;87.40;;;;;;5036967;28;20053;-80
2022/07/19 09:21:01;;;;;;;0.00;0.00;;;28.80;84.70;;;;;;5053720;28;20056;-80
2022/07/19 09:23:27;;;;;;;0.05;0.05;;;29.00;85.40;;;;;;5053540;28;20041;-81
2022/07/19 09:25:58;;;;;;;0.00;0.00;;;29.20;88.50;;;;;;5037749;28;20178;-81
2022/07/19 09:28:25;;;;;;;0.10;0.00;;;29.30;84.70;;;;;;5054109;28;20060;-81
2022/07/19 09:30:56;;;;;;;0.00;0.00;;;29.40;83.10;;;;;;5037640;28;20049;-81
2022/07/19 09:33:27;;;;;;;0.00;0.00;;;29.50;83.40;;;;;;5037288;28;20056;-81
2022/07/19 09:36:02;;;;;;;0.00;0.00;;;29.70;84.50;;;;;;5054561;28;20044;-81
2022/07/19 09:38:35;;;;;;;0.30;0.08;;;29.80;82.40;;;;;;5036936;28;20493;-81
2022/07/19 09:41:06;;;;;;;0.00;0.00;;;30.00;78.80;;;;;;5053340;28;20500;-81
2022/07/19 09:43:54;;;;;;;0.08;0.03;;;30.10;79.00;;;;;;5036962;28;20053;-81
2022/07/19 09:46:47;;;;;;;0.00;0.00;;;30.30;81.10;;;;;;5053195;28;20145;-81
2022/07/19 09:49:15;;;;;;;0.00;0.00;;;30.40;73.30;;;;;;5034975;28;20147;-81
2022/07/19 09:51:50;;;;;;;0.10;0.10;;;30.60;77.00;;;;;;5053584;28;20041;-81
2022/07/19 09:54:17;;;;;;;0.13;0.13;;;30.70;74.50;;;;;;5053137;28;20499;-81
2022/07/19 09:56:44;;;;;;;0.00;0.00;;;30.80;74.30;;;;;;5036236;28;20049;-81
2022/07/19 09:59:11;;;;;;;0.00;0.00;;;30.90;74.40;;;;;;5036542;28;20057;-81
2022/07/19 10:01:37;;;;;;;0.00;0.00;;;31.10;76.40;;;;;;5053128;28;20049;-81
2022/07/19 10:04:10;;;;;;;0.00;0.00;;;31.20;69.80;;;;;;5052829;28;20044;-82
2022/07/19 10:06:36;;;;;;;0.00;0.00;;;31.30;68.90;;;;;;5036339;28;20053;-82
2022/07/19 10:09:05;;;;;;;1.20;0.30;;;31.40;66.20;;;;;;5052913;28;20179;-81
2022/07/19 10:11:33;;;;;;;0.00;0.00;;;31.50;68.00;;;;;;5036536;28;20057;-81
2022/07/19 10:13:59;;;;;;;0.00;0.00;;;31.60;67.70;;;;;;5053080;28;20048;-81
2022/07/19 10:16:47;;;;;;;0.00;0.00;;;31.80;65.80;;;;;;5052801;28;20053;-81
2022/07/19 10:19:44;;;;;;;0.00;0.00;;;31.90;68.00;;;;;;5052999;28;20048;-81
2022/07/19 10:22:16;;;;;;;0.00;0.00;;;32.00;65.60;;;;;;5053383;28;20094;-81
2022/07/19 10:24:47;;;;;;;0.00;0.00;;;32.10;61.90;;;;;;5053019;28;20059;-81
2022/07/19 10:27:15;;;;;;;0.00;0.00;;;32.20;60.70;;;;;;5052447;28;20111;-82
2022/07/19 10:29:41;;;;;;;0.00;0.00;;;32.40;59.40;;;;;;5052049;28;20049;-82
2022/07/19 10:32:10;;;;;;;0.00;0.00;;;32.50;59.90;;;;;;5052407;28;20052;-82
2022/07/19 10:34:37;;;;;;;0.10;0.00;;;32.60;60.40;;;;;;5035130;28;20045;-82
2022/07/19 10:37:03;;;;;;;0.20;0.20;;;32.70;60.50;;;;;;5085984;28;20511;-82
2022/07/19 10:39:38;;;;;;;0.00;0.00;;;32.80;56.70;;;;;;5086368;28;20148;-82
2022/07/19 10:42:08;;;;;;;0.00;0.00;;;32.90;56.60;;;;;;5062764;28;20049;-82
2022/07/19 10:44:55;;;;;;;0.00;0.00;;;33.10;58.00;;;;;;5044804;28;20116;-82
2022/07/19 10:47:42;;;;;;;0.00;0.00;;;33.20;56.00;;;;;;5035509;28;20480;-82
2022/07/19 10:50:17;;;;;;;0.32;0.00;;;33.40;54.50;;;;;;5054567;28;20053;-83
2022/07/19 10:52:44;;;;;;;0.00;0.00;;;33.40;54.80;;;;;;5037364;28;20052;-81
2022/07/19 10:55:25;;;;;;;0.10;0.00;;;33.50;54.30;;;;;;5037138;28;20052;-82
2022/07/19 10:58:10;;;;;;;0.75;0.30;;;33.60;54.60;;;;;;5054728;28;20052;-82
2022/07/19 11:00:47;;;;;;;0.00;0.00;;;33.70;54.50;;;;;;5018674;28;20067;-81
2022/07/19 11:03:25;;;;;;;0.00;0.00;;;33.80;56.60;;;;;;5018485;28;20110;-82
2022/07/19 11:05:57;;;;;;;0.00;0.00;;;33.90;53.90;;;;;;5022158;28;20119;-80
2022/07/19 11:08:41;;;;;;;0.05;0.00;;;33.90;53.60;;;;;;5021608;28;20088;-79
2022/07/19 11:11:13;;;;;;;0.00;0.00;;;34.10;55.60;;;;;;5022368;28;20591;-81
2022/07/19 11:13:42;;;;;;;0.77;0.10;;;34.20;53.10;;;;;;5054647;28;20512;-82
2022/07/19 11:16:08;;;;;;;0.00;0.00;;;34.20;50.50;;;;;;5021882;28;20049;-81
2022/07/19 11:18:34;;;;;;;0.00;0.00;;;34.30;51.50;;;;;;5049762;28;20040;-82
2022/07/19 11:21:03;;;;;;;0.00;0.00;;;34.40;51.70;;;;;;5057355;28;20053;-81
2022/07/19 11:23:36;;;;;;;0.03;0.03;;;34.50;49.80;;;;;;5058440;28;20044;-82
2022/07/19 11:26:12;;;;;;;0.00;0.00;;;34.60;51.80;;;;;;5057993;28;20044;-81
2022/07/19 11:28:39;;;;;;;0.13;0.00;;;34.70;49.60;;;;;;5019704;28;20056;-85
2022/07/19 11:31:16;;;;;;;0.15;0.10;;;34.70;50.00;;;;;;5035266;28;20054;-82
2022/07/19 11:33:44;;;;;;;0.38;0.20;;;34.90;50.80;;;;;;5068778;28;20460;-82
2022/07/19 11:36:11;;;;;;;0.00;0.00;;;35.00;51.90;;;;;;5034919;28;20192;-82
2022/07/19 11:38:50;;;;;;;0.00;0.00;;;35.10;50.80;;;;;;5019017;28;20064;-82
2022/07/19 11:41:18;;;;;;;0.00;0.00;;;35.10;52.00;;;;;;5036319;28;20155;-82
2022/07/19 11:43:51;;;;;;;0.75;0.20;;;35.30;49.10;;;;;;5052381;28;20477;-81
2022/07/19 11:46:17;;;;;;;0.00;0.00;;;35.30;47.80;;;;;;5036277;28;20053;-81
2022/07/19 11:48:43;;;;;;;0.00;0.00;;;35.40;50.10;;;;;;5019181;28;20045;-81
2022/07/19 11:51:10;;;;;;;0.00;0.00;;;35.50;47.50;;;;;;5035325;28;20044;-81
2022/07/19 11:53:38;;;;;;;0.00;0.00;;;35.50;45.90;;;;;;5035297;28;20107;-81
2022/07/19 11:56:15;;;;;;;0.00;0.00;;;35.50;47.10;;;;;;5052161;28;20132;-81
2022/07/19 11:58:42;;;;;;;0.00;0.00;;;35.50;45.40;;;;;;5035499;28;20096;-81
2022/07/19 12:01:07;;;;;;;0.00;0.00;;;35.40;45.20;;;;;;5035311;28;20080;-79
2022/07/19 12:03:34;;;;;;;0.00;0.00;;;35.60;46.40;;;;;;5018879;28;20111;-80
2022/07/19 12:06:01;;;;;;;0.00;0.00;;;35.70;45.00;;;;;;5035277;28;20049;-79
2022/07/19 12:08:42;;;;;;;0.05;0.00;;;35.70;44.40;;;;;;5035110;28;20057;-79
2022/07/19 12:11:24;;;;;;;0.00;0.00;;;35.70;44.60;;;;;;5035127;28;20136;-79
2022/07/19 12:13:54;;;;;;;0.00;0.00;;;35.70;43.70;;;;;;5051756;28;20099;-79
2022/07/19 12:16:21;;;;;;;0.00;0.00;;;35.70;43.40;;;;;;5033552;28;20052;-80
2022/07/19 12:18:58;;;;;;;0.85;0.22;;;35.80;43.30;;;;;;5035036;28;20136;-81
2022/07/19 12:21:35;;;;;;;0.00;0.00;;;35.80;42.50;;;;;;5034297;28;20064;-81
2022/07/19 12:24:25;;;;;;;0.00;0.00;;;35.90;44.20;;;;;;5034930;28;20057;-80
2022/07/19 12:27:03;;;;;;;0.00;0.00;;;36.00;45.10;;;;;;5030706;28;20049;-79
2022/07/19 12:29:30;;;;;;;0.00;0.00;;;36.00;44.10;;;;;;5022239;28;20437;-81
2022/07/19 12:32:02;;;;;;;0.00;0.00;;;36.10;44.90;;;;;;5016710;28;20570;-80
2022/07/19 12:34:40;;;;;;;0.57;0.05;;;36.20;44.50;;;;;;4997886;28;20093;-81
2022/07/19 12:37:28;;;;;;;0.30;0.00;;;36.20;42.90;;;;;;5015072;28;20059;-80
2022/07/19 12:40:03;;;;;;;0.00;0.00;;;36.20;43.60;;;;;;5004724;28;20049;-81
2022/07/19 12:42:37;;;;;;;0.00;0.00;;;36.30;44.80;;;;;;5015364;28;20452;-82
2022/07/19 12:45:07;;;;;;;0.00;0.00;;;36.40;42.70;;;;;;5014480;28;20508;-81
2022/07/19 12:47:33;;;;;;;0.08;0.05;;;36.40;44.00;;;;;;4998319;28;20061;-80
2022/07/19 12:49:58;;;;;;;0.00;0.00;;;36.40;42.60;;;;;;5015256;28;20048;-82
2022/07/19 12:52:24;;;;;;;0.00;0.00;;;36.50;42.00;;;;;;4998607;28;20049;-82
2022/07/19 12:54:49;;;;;;;0.00;0.00;;;36.40;42.40;;;;;;5001498;28;20507;-83
2022/07/19 12:57:15;;;;;;;4.03;0.63;;;36.60;43.60;;;;;;4998421;28;20057;-82